createdAt,value
2022-10-09T00:01:26.141Z,7.87
2022-10-09T00:03:56.763Z,9.67
2022-10-09T00:06:28.238Z,6.03
2022-10-09T00:08:56.491Z,7.43
2022-10-09T00:11:26.404Z,7.03
2022-10-09T00:13:55.923Z,11.13
2022-10-09T00:16:24.945Z,6.93
2022-10-09T00:18:53.649Z,5.97
2022-10-09T00:21:24.795Z,7.17
2022-10-09T00:23:55.891Z,6.10
2022-10-09T00:26:24.557Z,8.33
2022-10-09T00:28:53.160Z,8.63
2022-10-09T00:31:21.732Z,7.53
2022-10-09T00:33:50.333Z,6.20
2022-10-09T00:36:21.140Z,6.37
2022-10-09T00:38:49.759Z,5.87
2022-10-09T00:41:25.386Z,10.73
2022-10-09T00:43:55.112Z,5.87
2022-10-09T00:46:31.241Z,5.23
2022-10-09T00:49:03.766Z,5.03
2022-10-09T00:51:33.505Z,6.03
2022-10-09T00:54:03.843Z,12.93
2022-10-09T00:56:33.615Z,11.07
2022-10-09T00:59:02.352Z,7.00
2022-10-09T01:01:30.500Z,6.20
2022-10-09T01:03:58.804Z,6.47
2022-10-09T01:06:41.061Z,7.80
2022-10-09T01:09:15.854Z,5.67
2022-10-09T01:11:57.013Z,7.53
2022-10-09T01:14:29.156Z,7.47
2022-10-09T01:17:03.437Z,10.27
2022-10-09T01:19:50.304Z,6.07
2022-10-09T01:22:32.072Z,5.73
2022-10-09T01:25:06.207Z,6.13
2022-10-09T01:27:38.371Z,7.07
2022-10-09T01:30:09.818Z,7.00
2022-10-09T01:32:40.973Z,4.57
2022-10-09T01:35:12.134Z,6.97
2022-10-09T01:37:43.578Z,7.10
2022-10-09T01:40:14.265Z,9.13
2022-10-09T01:42:46.934Z,5.60
2022-10-09T01:45:16.390Z,8.03
2022-10-09T01:47:44.943Z,5.70
2022-10-09T01:50:20.921Z,5.50
2022-10-09T01:52:55.666Z,6.63
2022-10-09T01:55:35.555Z,5.43
2022-10-09T01:58:30.136Z,7.00
2022-10-09T02:01:15.487Z,6.00
2022-10-09T02:03:50.119Z,5.63
2022-10-09T02:06:19.994Z,6.73
2022-10-09T02:08:54.822Z,10.07
2022-10-09T02:11:27.079Z,6.90
2022-10-09T02:13:57.070Z,6.03
2022-10-09T02:16:37.686Z,5.20
2022-10-09T02:19:15.271Z,4.90
2022-10-09T02:22:02.106Z,6.77
2022-10-09T02:24:33.193Z,4.73
2022-10-09T02:27:20.308Z,6.27
2022-10-09T02:30:08.982Z,8.50
2022-10-09T02:32:37.536Z,7.63
2022-10-09T02:35:15.232Z,5.73
2022-10-09T02:37:55.347Z,6.00
2022-10-09T02:40:32.155Z,8.17
2022-10-09T02:43:20.079Z,7.10
2022-10-09T02:45:57.152Z,6.30
2022-10-09T02:48:25.384Z,9.47
2022-10-09T02:50:53.524Z,6.30
2022-10-09T02:53:35.685Z,8.00
2022-10-09T02:56:06.600Z,9.87
2022-10-09T02:58:36.146Z,9.27
2022-10-09T03:01:06.583Z,10.17
2022-10-09T03:03:47.666Z,9.07
2022-10-09T03:06:20.611Z,9.30
2022-10-09T03:08:58.673Z,9.00
2022-10-09T03:11:32.296Z,7.40
2022-10-09T03:14:15.645Z,9.13
2022-10-09T03:16:54.483Z,8.57
2022-10-09T03:19:28.047Z,10.20
2022-10-09T03:21:56.126Z,6.80
2022-10-09T03:24:24.273Z,10.23
2022-10-09T03:26:52.458Z,5.87
2022-10-09T03:29:21.144Z,5.57
2022-10-09T03:31:52.731Z,9.03
2022-10-09T03:34:21.448Z,6.03
2022-10-09T03:36:50.294Z,8.63
2022-10-09T03:39:18.494Z,7.97
2022-10-09T03:41:46.594Z,7.93
2022-10-09T03:44:14.722Z,7.67
2022-10-09T03:46:42.910Z,6.27
2022-10-09T03:49:12.571Z,5.23
2022-10-09T03:51:40.721Z,9.43
2022-10-09T03:54:11.582Z,6.87
2022-10-09T03:56:44.173Z,7.20
2022-10-09T03:59:12.835Z,6.93
2022-10-09T04:01:41.121Z,8.10
2022-10-09T04:04:13.977Z,7.67
2022-10-09T04:06:45.048Z,8.63
2022-10-09T04:09:13.347Z,5.60
2022-10-09T04:11:48.255Z,7.40
2022-10-09T04:14:20.004Z,7.73
2022-10-09T04:16:48.467Z,6.73
2022-10-09T04:19:20.643Z,6.57
2022-10-09T04:22:13.641Z,7.70
2022-10-09T04:24:49.781Z,4.63
2022-10-09T04:27:28.276Z,7.20
2022-10-09T04:30:04.392Z,7.67
2022-10-09T04:32:35.065Z,7.43
2022-10-09T04:35:15.207Z,5.87
2022-10-09T04:37:43.635Z,7.47
2022-10-09T04:40:12.424Z,6.63
2022-10-09T04:42:40.651Z,9.60
2022-10-09T04:45:09.858Z,7.90
2022-10-09T04:47:38.090Z,7.37
2022-10-09T04:50:11.093Z,6.27
2022-10-09T04:52:39.212Z,6.53
2022-10-09T04:55:08.317Z,8.23
2022-10-09T04:57:36.570Z,7.53
2022-10-09T05:00:05.259Z,7.50
2022-10-09T05:02:33.652Z,9.17
2022-10-09T05:05:04.292Z,8.17
2022-10-09T05:07:33.846Z,7.03
2022-10-09T05:10:01.978Z,5.33
2022-10-09T05:12:30.202Z,6.23
2022-10-09T05:14:58.387Z,7.83
2022-10-09T05:17:26.671Z,6.20
2022-10-09T05:19:57.682Z,7.90
2022-10-09T05:22:26.009Z,7.00
2022-10-09T05:24:55.561Z,8.10
2022-10-09T05:27:23.838Z,8.00
2022-10-09T05:29:53.692Z,7.47
2022-10-09T05:32:24.296Z,8.67
2022-10-09T05:34:53.709Z,5.70
2022-10-09T05:37:21.994Z,9.50
2022-10-09T05:39:59.935Z,9.73
2022-10-09T05:42:38.441Z,7.70
2022-10-09T05:45:08.562Z,7.23
2022-10-09T05:47:36.849Z,7.50
2022-10-09T05:50:05.587Z,7.90
2022-10-09T05:52:33.753Z,10.00
2022-10-09T05:55:01.967Z,10.23
2022-10-09T05:57:30.398Z,10.43
2022-10-09T06:00:00.011Z,9.57
2022-10-09T06:02:28.304Z,9.90
2022-10-09T06:04:56.738Z,10.00
2022-10-09T06:07:24.987Z,9.07
2022-10-09T06:09:53.142Z,8.87
2022-10-09T06:12:42.293Z,8.00
2022-10-09T06:15:25.343Z,9.70
2022-10-09T06:17:56.310Z,8.50
2022-10-09T06:20:27.603Z,11.17
2022-10-09T06:22:57.839Z,8.27
2022-10-09T06:25:40.557Z,10.30
2022-10-09T06:28:35.271Z,7.47
2022-10-09T06:31:07.477Z,12.20
2022-10-09T06:33:40.176Z,11.03
2022-10-09T06:36:10.873Z,10.00
2022-10-09T06:38:40.972Z,8.77
2022-10-09T06:41:11.120Z,10.23
2022-10-09T06:43:40.817Z,8.53
2022-10-09T06:46:15.229Z,9.73
2022-10-09T06:48:43.580Z,9.33
2022-10-09T06:51:15.516Z,9.67
2022-10-09T06:53:45.824Z,11.37
2022-10-09T06:56:16.135Z,9.53
2022-10-09T06:58:45.024Z,12.57
2022-10-09T07:01:16.883Z,7.67
2022-10-09T07:03:54.895Z,11.23
2022-10-09T07:06:34.708Z,10.77
2022-10-09T07:09:07.607Z,10.17
2022-10-09T07:11:50.978Z,8.73
2022-10-09T07:14:26.893Z,7.73
2022-10-09T07:17:48.074Z,9.27
2022-10-09T07:52:23.932Z,10.93
2022-10-09T07:55:47.403Z,7.47
2022-10-09T07:58:15.604Z,8.57
2022-10-09T08:00:44.478Z,8.40
2022-10-09T08:03:12.605Z,7.23
2022-10-09T08:05:40.795Z,7.17
2022-10-09T08:08:10.341Z,9.00
2022-10-09T08:11:13.530Z,7.97
2022-10-09T08:13:53.080Z,9.73
2022-10-09T08:17:09.782Z,6.00
2022-10-09T08:24:41.551Z,7.10
2022-10-09T08:27:11.040Z,5.37
2022-10-09T08:29:40.327Z,10.23
2022-10-09T08:32:08.609Z,6.40
2022-10-09T08:34:36.634Z,6.20
2022-10-09T08:37:04.590Z,10.53
2022-10-09T08:39:32.845Z,6.93
2022-10-09T08:42:03.431Z,5.70
2022-10-09T08:44:38.999Z,5.07
2022-10-09T08:47:10.469Z,7.20
2022-10-09T08:49:45.144Z,7.57
2022-10-09T08:52:22.026Z,8.50
2022-10-09T08:54:50.178Z,8.30
2022-10-09T08:57:18.878Z,5.77
2022-10-09T08:59:48.435Z,5.70
2022-10-09T09:02:53.082Z,8.17
2022-10-09T09:05:38.493Z,6.73
2022-10-09T09:08:23.453Z,12.40
2022-10-09T09:10:58.889Z,10.87
2022-10-09T09:13:41.885Z,7.17
2022-10-09T09:16:19.270Z,8.10
2022-10-09T09:19:10.901Z,7.40
2022-10-09T09:21:49.005Z,5.70
2022-10-09T09:24:20.205Z,6.38
2022-10-09T09:26:52.852Z,4.57
2022-10-09T09:29:24.360Z,8.03
2022-10-09T09:31:58.182Z,6.63
2022-10-09T09:34:34.835Z,5.17
2022-10-09T09:37:03.477Z,4.90
2022-10-09T09:42:23.093Z,5.17
2022-10-09T09:44:58.869Z,5.20
2022-10-09T09:47:34.691Z,10.27
2022-10-09T09:56:53.316Z,7.03
2022-10-09T09:59:33.819Z,7.13
2022-10-09T10:02:13.865Z,7.83
2022-10-09T10:04:54.861Z,5.30
2022-10-09T10:07:30.689Z,7.80
2022-10-09T10:10:08.093Z,5.33
2022-10-09T10:12:41.829Z,5.27
2022-10-09T10:15:20.045Z,5.67
2022-10-09T10:17:49.982Z,4.57
2022-10-09T10:20:19.986Z,5.47
2022-10-09T10:22:53.152Z,6.43
2022-10-09T10:25:24.649Z,4.30
2022-10-09T10:27:57.275Z,5.80
2022-10-09T10:30:25.473Z,4.20
2022-10-09T10:33:00.078Z,6.67
2022-10-09T10:35:33.810Z,6.23
2022-10-09T10:38:06.452Z,5.73
2022-10-09T10:40:37.929Z,3.50
2022-10-09T10:43:16.676Z,4.10
2022-10-09T10:45:59.061Z,5.83
2022-10-09T10:48:39.390Z,4.47
2022-10-09T10:51:24.525Z,4.23
2022-10-09T10:54:03.981Z,6.33
2022-10-09T10:56:41.373Z,5.47
2022-10-09T10:59:30.352Z,3.07
2022-10-09T11:02:21.083Z,4.47
2022-10-09T11:04:57.500Z,3.73
2022-10-09T11:07:35.875Z,4.60
2022-10-09T11:10:17.003Z,4.07
2022-10-09T11:12:59.359Z,6.27
2022-10-09T11:15:37.946Z,5.80
2022-10-09T11:18:22.947Z,3.37
2022-10-09T11:21:04.068Z,4.87
2022-10-09T11:23:46.214Z,6.30
2022-10-09T11:26:24.914Z,3.20
2022-10-09T11:28:59.514Z,3.97
2022-10-09T11:31:34.221Z,4.60
2022-10-09T11:34:10.727Z,5.07
2022-10-09T11:36:42.047Z,8.10
2022-10-09T11:39:18.205Z,3.87
2022-10-09T11:41:48.644Z,5.53
2022-10-09T11:44:38.938Z,4.77
2022-10-09T11:47:15.921Z,3.67
2022-10-09T11:49:58.777Z,4.30
2022-10-09T11:52:36.901Z,5.27
2022-10-09T11:55:21.994Z,7.37
2022-10-09T11:57:50.918Z,2.40
2022-10-09T12:00:33.954Z,2.83
2022-10-09T12:03:04.387Z,4.60
2022-10-09T12:05:43.885Z,6.53
2022-10-09T12:08:18.414Z,4.37
2022-10-09T12:10:54.225Z,2.87
2022-10-09T12:13:43.056Z,5.90
2022-10-09T12:16:30.056Z,3.53
2022-10-09T12:19:00.153Z,4.90
2022-10-09T12:21:32.792Z,6.67
2022-10-09T12:24:01.640Z,3.93
2022-10-09T12:26:32.344Z,2.37
2022-10-09T12:29:03.241Z,3.67
2022-10-09T12:31:35.137Z,4.27
2022-10-09T12:34:15.054Z,5.00
2022-10-09T12:36:43.172Z,5.00
2022-10-09T12:39:21.292Z,4.50
2022-10-09T12:41:55.685Z,3.50
2022-10-09T12:44:47.832Z,5.50
2022-10-09T12:47:50.077Z,4.57
2022-10-09T12:50:26.043Z,3.37
2022-10-09T12:53:26.998Z,3.97
2022-10-09T12:55:59.269Z,4.80
2022-10-09T12:58:31.075Z,3.33
2022-10-09T13:01:02.413Z,2.60
2022-10-09T13:03:36.550Z,3.00
2022-10-09T13:06:07.151Z,3.17
2022-10-09T13:08:39.143Z,5.97
2022-10-09T13:11:12.539Z,3.13
2022-10-09T13:13:42.187Z,2.07
2022-10-09T13:16:11.300Z,4.93
2022-10-09T13:18:39.536Z,3.57
2022-10-09T13:21:24.426Z,4.83
2022-10-09T13:23:52.603Z,4.77
2022-10-09T13:26:26.772Z,5.40
2022-10-09T13:28:58.378Z,4.07
2022-10-09T13:31:26.796Z,4.33
2022-10-09T13:33:54.737Z,2.77
2022-10-09T13:36:22.670Z,3.93
2022-10-09T13:38:50.805Z,2.77
2022-10-09T13:41:24.272Z,5.93
2022-10-09T13:43:54.291Z,3.90
2022-10-09T13:46:23.650Z,3.43
2022-10-09T13:48:51.609Z,4.57
2022-10-09T13:51:19.704Z,4.03
2022-10-09T13:53:47.645Z,3.27
2022-10-09T13:56:15.601Z,2.80
2022-10-09T13:58:43.631Z,2.70
2022-10-09T14:01:11.686Z,3.40
2022-10-09T14:03:41.556Z,3.87
2022-10-09T14:06:09.682Z,3.23
2022-10-09T14:08:38.534Z,7.13
2022-10-09T14:11:06.848Z,2.33
2022-10-09T14:13:35.152Z,3.90
2022-10-09T14:16:05.620Z,5.97
2022-10-09T14:18:33.591Z,1.90
2022-10-09T14:21:14.623Z,3.10
2022-10-09T14:23:43.321Z,2.80
2022-10-09T14:26:11.323Z,3.87
2022-10-09T14:28:39.475Z,3.80
2022-10-09T14:31:08.344Z,4.10
2022-10-09T14:33:36.488Z,3.00
2022-10-09T14:36:11.353Z,3.10
2022-10-09T14:38:39.760Z,3.07
2022-10-09T14:41:09.102Z,4.30
2022-10-09T14:43:37.564Z,3.30
2022-10-09T14:46:07.316Z,4.70
2022-10-09T14:48:35.628Z,5.13
2022-10-09T14:51:05.259Z,4.33
2022-10-09T14:53:35.181Z,4.10
2022-10-09T14:56:03.869Z,3.30
2022-10-09T14:58:33.826Z,2.20
2022-10-09T15:01:02.821Z,3.63
2022-10-09T15:03:31.744Z,3.67
2022-10-09T15:06:00.768Z,4.53
2022-10-09T15:08:31.048Z,4.47
2022-10-09T15:11:00.647Z,3.00
2022-10-09T15:13:28.874Z,4.90
2022-10-09T15:16:00.175Z,3.27
2022-10-09T15:18:28.596Z,2.73
2022-10-09T15:20:57.718Z,2.40
2022-10-09T15:23:25.728Z,1.40
2022-10-09T15:25:55.492Z,4.60
2022-10-09T15:28:25.895Z,2.47
2022-10-09T15:30:56.589Z,2.77
2022-10-09T15:33:25.048Z,2.63
2022-10-09T15:37:00.099Z,3.37
2022-10-09T15:39:28.466Z,3.00
2022-10-09T15:43:40.502Z,3.50
2022-10-09T15:45:52.893Z,3.00
2022-10-09T15:48:50.181Z,4.40
2022-10-09T15:51:52.615Z,5.50
2022-10-09T16:33:20.237Z,3.97
2022-10-09T16:35:48.615Z,5.13
2022-10-09T16:38:17.770Z,2.90
2022-10-09T16:41:02.996Z,2.70
2022-10-09T16:43:36.656Z,4.93
2022-10-09T16:46:18.505Z,3.57
2022-10-09T16:48:48.867Z,2.83
2022-10-09T16:51:28.981Z,3.00
2022-10-09T16:53:59.403Z,3.87
2022-10-09T16:56:33.004Z,3.40
2022-10-09T16:59:14.425Z,5.50
2022-10-09T17:01:43.747Z,3.13
2022-10-09T17:04:14.782Z,4.87
2022-10-09T17:10:08.252Z,3.73
2022-10-09T17:12:44.952Z,2.57
2022-10-09T17:36:26.377Z,3.53
2022-10-09T17:38:54.637Z,3.83
2022-10-09T17:41:25.058Z,3.20
2022-10-09T17:43:54.524Z,3.37
2022-10-09T17:46:23.638Z,3.27
2022-10-09T17:48:53.489Z,3.00
2022-10-09T17:51:25.421Z,5.17
2022-10-09T17:53:54.581Z,4.90
2022-10-09T17:56:22.584Z,7.40
2022-10-09T17:58:50.728Z,7.03
2022-10-09T18:01:19.363Z,7.17
2022-10-09T18:03:47.392Z,9.70
2022-10-09T18:06:17.650Z,8.87
2022-10-09T18:08:47.745Z,7.53
2022-10-09T18:11:17.757Z,6.90
2022-10-09T18:13:46.935Z,7.73
2022-10-09T18:16:17.469Z,8.37
2022-10-09T18:18:46.014Z,6.33
2022-10-09T18:21:17.637Z,6.20
2022-10-09T18:23:48.185Z,5.93
2022-10-09T18:26:18.289Z,5.37
2022-10-09T18:28:48.550Z,5.47
2022-10-09T18:31:20.466Z,3.60
2022-10-09T18:33:48.569Z,6.47
2022-10-09T18:36:19.709Z,5.90
2022-10-09T18:38:56.689Z,4.53
2022-10-09T18:41:25.065Z,4.77
2022-10-09T18:43:54.027Z,4.13
2022-10-09T18:46:26.111Z,4.03
2022-10-09T18:53:22.806Z,4.33
2022-10-09T18:55:52.533Z,4.13
2022-10-09T18:58:22.145Z,8.93
2022-10-09T19:00:50.539Z,4.77
2022-10-09T19:03:18.518Z,5.70
2022-10-09T19:05:46.496Z,7.33
2022-10-09T19:08:14.560Z,4.23
2022-10-09T19:10:42.764Z,6.37
2022-10-09T19:13:18.361Z,6.50
2022-10-09T19:15:52.655Z,5.07
2022-10-09T19:18:21.321Z,7.17
2022-10-09T19:20:50.008Z,5.30
2022-10-09T19:23:18.113Z,6.37
2022-10-09T19:25:50.502Z,4.50
2022-10-09T19:28:20.977Z,4.20
2022-10-09T19:30:49.495Z,5.30
2022-10-09T19:33:18.444Z,6.27
2022-10-09T19:35:51.534Z,3.77
2022-10-09T19:38:20.002Z,6.57
2022-10-09T19:40:48.737Z,6.53
2022-10-09T19:43:18.261Z,5.60
2022-10-09T19:45:49.928Z,8.17
2022-10-09T19:48:20.407Z,6.60
2022-10-09T19:50:48.463Z,8.03
2022-10-09T19:53:16.522Z,7.63
2022-10-09T19:55:44.874Z,4.60
2022-10-09T19:58:14.823Z,6.17
2022-10-09T20:01:09.230Z,5.03
2022-10-09T20:03:38.013Z,6.83
2022-10-09T20:06:43.025Z,6.17
2022-10-09T20:09:20.894Z,4.97
2022-10-09T20:11:49.505Z,5.73
2022-10-09T20:14:17.609Z,6.13
2022-10-09T20:16:47.202Z,6.63
2022-10-09T20:19:15.333Z,6.03
2022-10-09T20:21:43.326Z,4.23
2022-10-09T20:24:11.361Z,5.00
2022-10-09T20:26:42.993Z,6.00
2022-10-09T20:29:11.708Z,4.63
2022-10-09T20:31:40.192Z,5.57
2022-10-09T20:34:09.670Z,5.67
2022-10-09T20:36:39.182Z,4.70
2022-10-09T20:39:09.459Z,5.60
2022-10-09T20:41:38.125Z,4.43
2022-10-09T20:44:07.203Z,7.20
2022-10-09T20:46:36.942Z,5.80
2022-10-09T20:49:07.531Z,4.43
2022-10-09T20:51:38.231Z,7.80
2022-10-09T20:54:07.477Z,4.23
2022-10-09T20:56:36.686Z,6.73
2022-10-09T20:59:04.858Z,4.13
2022-10-09T21:01:33.003Z,5.60
2022-10-09T21:04:00.926Z,5.07
2022-10-09T21:06:30.175Z,5.43
2022-10-09T21:08:59.938Z,4.10
2022-10-09T21:11:28.190Z,5.30
2022-10-09T21:13:56.288Z,4.93
2022-10-09T21:16:25.408Z,5.43
2022-10-09T21:18:55.265Z,3.17
2022-10-09T21:21:23.681Z,2.60
2022-10-09T21:23:53.453Z,6.03
2022-10-09T21:26:24.330Z,4.17
2022-10-09T21:28:58.226Z,4.10
2022-10-09T21:31:28.876Z,5.37
2022-10-09T21:33:58.079Z,5.67
2022-10-09T21:36:33.746Z,5.13
2022-10-09T21:39:01.833Z,4.93
2022-10-09T21:41:31.200Z,5.20
2022-10-09T21:43:59.287Z,5.27
2022-10-09T21:46:27.630Z,3.00
2022-10-09T21:48:56.304Z,5.33
2022-10-09T21:51:24.456Z,5.73
2022-10-09T21:53:54.299Z,5.53
2022-10-09T21:56:22.390Z,3.50
2022-10-09T21:58:52.074Z,5.10
2022-10-09T22:01:20.236Z,5.30
2022-10-09T22:03:48.665Z,5.00
2022-10-09T22:06:19.122Z,5.67
2022-10-09T22:08:47.992Z,3.70
2022-10-09T22:11:16.764Z,4.10
2022-10-09T22:13:45.289Z,3.23
2022-10-09T22:16:16.483Z,4.73
2022-10-09T22:18:44.879Z,5.27
2022-10-09T22:21:15.023Z,3.20
2022-10-09T22:23:43.874Z,3.87
2022-10-09T22:26:13.555Z,5.33
2022-10-09T22:28:41.995Z,3.73
2022-10-09T22:31:13.565Z,5.33
2022-10-09T22:33:43.593Z,4.23
2022-10-09T22:36:14.482Z,3.90
2022-10-09T22:38:43.860Z,4.67
2022-10-09T22:41:13.528Z,4.73
2022-10-09T22:43:42.690Z,6.40
2022-10-09T22:46:12.681Z,4.17
2022-10-09T22:48:42.853Z,3.40
2022-10-09T22:51:13.434Z,3.60
2022-10-09T22:53:43.002Z,6.03
2022-10-09T22:56:15.044Z,3.80
2022-10-09T22:58:43.171Z,4.00
2022-10-09T23:01:14.467Z,4.10
2022-10-09T23:03:43.947Z,4.40
2022-10-09T23:06:14.257Z,4.17
2022-10-09T23:08:44.659Z,3.57
2022-10-09T23:11:14.147Z,5.90
2022-10-09T23:13:42.649Z,3.30
2022-10-09T23:16:12.592Z,5.00
2022-10-09T23:18:42.154Z,4.03
2022-10-09T23:21:15.561Z,7.67
2022-10-09T23:23:45.392Z,4.33
2022-10-09T23:26:15.674Z,3.67
2022-10-09T23:28:44.984Z,4.63
2022-10-09T23:31:15.338Z,2.93
2022-10-09T23:33:45.247Z,4.47
2022-10-09T23:36:17.461Z,3.77
2022-10-09T23:38:46.524Z,3.60
2022-10-09T23:41:17.005Z,4.37
2022-10-09T23:43:45.728Z,4.97
2022-10-09T23:46:16.208Z,4.13
2022-10-09T23:48:44.741Z,4.33
2022-10-09T23:51:14.839Z,5.57
2022-10-09T23:53:43.482Z,3.27
2022-10-09T23:56:19.899Z,2.40
2022-10-09T23:58:48.426Z,4.00
